sensor_id;sensor_type;location;lat;lon;timestamp;temperature;humidity
45537;DHT22;31262;51.978;5.924;2022-09-09T00:00:28;20.60;69.70
45537;DHT22;31262;51.978;5.924;2022-09-09T00:05:57;20.70;69.20
45537;DHT22;31262;51.978;5.924;2022-09-09T00:08:22;20.70;69.00
45537;DHT22;31262;51.978;5.924;2022-09-09T00:10:56;20.90;69.00
45537;DHT22;31262;51.978;5.924;2022-09-09T00:13:48;21.00;68.60
45537;DHT22;31262;51.978;5.924;2022-09-09T00:16:22;21.20;68.10
45537;DHT22;31262;51.978;5.924;2022-09-09T00:19:07;21.20;67.90
45537;DHT22;31262;51.978;5.924;2022-09-09T00:21:37;21.40;67.60
45537;DHT22;31262;51.978;5.924;2022-09-09T00:27:08;21.50;67.00
45537;DHT22;31262;51.978;5.924;2022-09-09T00:32:15;21.60;66.90
45537;DHT22;31262;51.978;5.924;2022-09-09T00:34:49;21.70;66.70
45537;DHT22;31262;51.978;5.924;2022-09-09T00:37:17;21.70;66.70
45537;DHT22;31262;51.978;5.924;2022-09-09T00:39:47;21.70;66.30
45537;DHT22;31262;51.978;5.924;2022-09-09T00:42:16;21.60;66.50
45537;DHT22;31262;51.978;5.924;2022-09-09T00:50:14;21.60;66.40
45537;DHT22;31262;51.978;5.924;2022-09-09T00:53:00;21.60;66.30
45537;DHT22;31262;51.978;5.924;2022-09-09T00:55:39;21.70;66.30
45537;DHT22;31262;51.978;5.924;2022-09-09T00:58:08;21.70;66.10
45537;DHT22;31262;51.978;5.924;2022-09-09T01:00:44;21.70;66.00
45537;DHT22;31262;51.978;5.924;2022-09-09T01:03:19;21.80;65.80
45537;DHT22;31262;51.978;5.924;2022-09-09T01:10:54;21.60;65.80
45537;DHT22;31262;51.978;5.924;2022-09-09T01:13:38;21.60;65.60
45537;DHT22;31262;51.978;5.924;2022-09-09T01:16:08;21.60;65.40
45537;DHT22;31262;51.978;5.924;2022-09-09T01:18:40;21.60;65.50
45537;DHT22;31262;51.978;5.924;2022-09-09T01:21:35;21.70;65.30
45537;DHT22;31262;51.978;5.924;2022-09-09T01:26:51;21.70;65.20
45537;DHT22;31262;51.978;5.924;2022-09-09T01:29:19;21.70;65.00
45537;DHT22;31262;51.978;5.924;2022-09-09T01:31:57;21.70;64.80
45537;DHT22;31262;51.978;5.924;2022-09-09T01:34:27;21.80;64.80
45537;DHT22;31262;51.978;5.924;2022-09-09T01:37:08;21.80;64.70
45537;DHT22;31262;51.978;5.924;2022-09-09T01:39:36;21.80;64.40
45537;DHT22;31262;51.978;5.924;2022-09-09T01:42:05;21.80;64.40
45537;DHT22;31262;51.978;5.924;2022-09-09T01:44:31;21.80;64.30
45537;DHT22;31262;51.978;5.924;2022-09-09T01:46:57;21.80;64.20
45537;DHT22;31262;51.978;5.924;2022-09-09T01:49:23;21.80;64.10
45537;DHT22;31262;51.978;5.924;2022-09-09T01:51:52;21.80;64.10
45537;DHT22;31262;51.978;5.924;2022-09-09T01:54:20;21.80;63.90
45537;DHT22;31262;51.978;5.924;2022-09-09T01:56:51;21.70;63.70
45537;DHT22;31262;51.978;5.924;2022-09-09T02:02:18;21.80;63.50
45537;DHT22;31262;51.978;5.924;2022-09-09T02:04:55;21.80;63.50
45537;DHT22;31262;51.978;5.924;2022-09-09T02:07:42;21.70;63.50
45537;DHT22;31262;51.978;5.924;2022-09-09T02:13:12;21.70;63.40
45537;DHT22;31262;51.978;5.924;2022-09-09T02:15:54;21.70;63.40
45537;DHT22;31262;51.978;5.924;2022-09-09T02:18:27;21.80;63.30
45537;DHT22;31262;51.978;5.924;2022-09-09T02:20:56;21.80;63.30
45537;DHT22;31262;51.978;5.924;2022-09-09T02:23:23;21.70;63.10
45537;DHT22;31262;51.978;5.924;2022-09-09T02:25:50;21.70;63.80
45537;DHT22;31262;51.978;5.924;2022-09-09T02:28:18;21.70;62.90
45537;DHT22;31262;51.978;5.924;2022-09-09T02:30:46;21.70;62.80
45537;DHT22;31262;51.978;5.924;2022-09-09T02:33:14;21.70;62.80
45537;DHT22;31262;51.978;5.924;2022-09-09T02:35:42;21.70;62.80
45537;DHT22;31262;51.978;5.924;2022-09-09T02:38:11;21.70;62.70
45537;DHT22;31262;51.978;5.924;2022-09-09T02:40:38;21.70;62.80
45537;DHT22;31262;51.978;5.924;2022-09-09T02:43:04;21.60;62.60
45537;DHT22;31262;51.978;5.924;2022-09-09T02:45:40;21.70;62.50
45537;DHT22;31262;51.978;5.924;2022-09-09T02:48:44;21.70;62.40
45537;DHT22;31262;51.978;5.924;2022-09-09T02:51:18;21.60;62.30
45537;DHT22;31262;51.978;5.924;2022-09-09T02:54:04;21.60;62.60
45537;DHT22;31262;51.978;5.924;2022-09-09T02:56:36;21.60;62.50
45537;DHT22;31262;51.978;5.924;2022-09-09T02:59:04;21.60;62.50
45537;DHT22;31262;51.978;5.924;2022-09-09T03:01:30;21.60;62.30
45537;DHT22;31262;51.978;5.924;2022-09-09T03:03:57;21.60;62.20
45537;DHT22;31262;51.978;5.924;2022-09-09T03:06:22;21.60;62.20
45537;DHT22;31262;51.978;5.924;2022-09-09T03:08:48;21.60;62.20
45537;DHT22;31262;51.978;5.924;2022-09-09T03:11:15;21.60;62.20
45537;DHT22;31262;51.978;5.924;2022-09-09T03:13:41;21.60;62.10
45537;DHT22;31262;51.978;5.924;2022-09-09T03:16:06;21.50;62.10
45537;DHT22;31262;51.978;5.924;2022-09-09T03:18:32;21.50;62.30
45537;DHT22;31262;51.978;5.924;2022-09-09T03:20:57;21.50;62.40
45537;DHT22;31262;51.978;5.924;2022-09-09T03:23:24;21.40;62.40
45537;DHT22;31262;51.978;5.924;2022-09-09T03:25:50;21.40;62.30
45537;DHT22;31262;51.978;5.924;2022-09-09T03:28:17;21.30;62.50
45537;DHT22;31262;51.978;5.924;2022-09-09T03:30:43;21.40;62.70
45537;DHT22;31262;51.978;5.924;2022-09-09T03:33:09;21.40;62.80
45537;DHT22;31262;51.978;5.924;2022-09-09T03:35:34;21.40;62.80
45537;DHT22;31262;51.978;5.924;2022-09-09T03:38:00;21.30;62.80
45537;DHT22;31262;51.978;5.924;2022-09-09T03:40:26;21.30;62.70
45537;DHT22;31262;51.978;5.924;2022-09-09T03:42:51;21.20;62.80
45537;DHT22;31262;51.978;5.924;2022-09-09T03:45:17;21.20;62.90
45537;DHT22;31262;51.978;5.924;2022-09-09T03:47:43;21.10;62.90
45537;DHT22;31262;51.978;5.924;2022-09-09T03:50:09;21.20;62.90
45537;DHT22;31262;51.978;5.924;2022-09-09T03:52:40;21.20;62.80
45537;DHT22;31262;51.978;5.924;2022-09-09T03:55:06;21.30;62.70
45537;DHT22;31262;51.978;5.924;2022-09-09T03:57:32;21.30;62.80
45537;DHT22;31262;51.978;5.924;2022-09-09T04:00:03;21.30;62.80
45537;DHT22;31262;51.978;5.924;2022-09-09T04:02:30;21.40;62.80
45537;DHT22;31262;51.978;5.924;2022-09-09T04:04:55;21.40;62.70
45537;DHT22;31262;51.978;5.924;2022-09-09T04:07:21;21.40;62.60
45537;DHT22;31262;51.978;5.924;2022-09-09T04:09:47;21.40;62.60
45537;DHT22;31262;51.978;5.924;2022-09-09T04:12:12;21.40;62.60
45537;DHT22;31262;51.978;5.924;2022-09-09T04:14:38;21.40;62.70
45537;DHT22;31262;51.978;5.924;2022-09-09T04:17:04;21.40;62.80
45537;DHT22;31262;51.978;5.924;2022-09-09T04:19:32;21.40;62.80
45537;DHT22;31262;51.978;5.924;2022-09-09T04:21:57;21.40;62.80
45537;DHT22;31262;51.978;5.924;2022-09-09T04:24:23;21.40;62.80
45537;DHT22;31262;51.978;5.924;2022-09-09T04:26:49;21.30;62.80
45537;DHT22;31262;51.978;5.924;2022-09-09T04:29:15;21.20;63.20
45537;DHT22;31262;51.978;5.924;2022-09-09T04:31:41;21.00;63.70
45537;DHT22;31262;51.978;5.924;2022-09-09T04:34:08;20.80;64.20
45537;DHT22;31262;51.978;5.924;2022-09-09T04:36:34;20.70;64.80
45537;DHT22;31262;51.978;5.924;2022-09-09T04:39:00;20.50;65.10
45537;DHT22;31262;51.978;5.924;2022-09-09T04:41:27;20.40;65.40
45537;DHT22;31262;51.978;5.924;2022-09-09T04:43:53;20.40;65.70
45537;DHT22;31262;51.978;5.924;2022-09-09T04:46:20;20.30;66.20
45537;DHT22;31262;51.978;5.924;2022-09-09T04:48:46;20.10;66.60
45537;DHT22;31262;51.978;5.924;2022-09-09T04:51:13;20.00;67.70
45537;DHT22;31262;51.978;5.924;2022-09-09T04:53:39;19.90;67.50
45537;DHT22;31262;51.978;5.924;2022-09-09T04:56:11;19.80;67.90
45537;DHT22;31262;51.978;5.924;2022-09-09T04:58:37;19.70;68.40
45537;DHT22;31262;51.978;5.924;2022-09-09T05:01:14;19.60;68.90
45537;DHT22;31262;51.978;5.924;2022-09-09T05:03:40;19.60;69.10
45537;DHT22;31262;51.978;5.924;2022-09-09T05:06:24;19.50;69.50
45537;DHT22;31262;51.978;5.924;2022-09-09T05:08:49;19.50;69.20
45537;DHT22;31262;51.978;5.924;2022-09-09T05:11:22;19.40;69.80
45537;DHT22;31262;51.978;5.924;2022-09-09T05:13:50;19.50;69.70
45537;DHT22;31262;51.978;5.924;2022-09-09T05:16:16;19.40;70.20
45537;DHT22;31262;51.978;5.924;2022-09-09T05:18:43;19.30;70.50
45537;DHT22;31262;51.978;5.924;2022-09-09T05:21:13;19.30;70.70
45537;DHT22;31262;51.978;5.924;2022-09-09T05:23:39;19.30;70.90
45537;DHT22;31262;51.978;5.924;2022-09-09T05:26:06;19.30;70.90
45537;DHT22;31262;51.978;5.924;2022-09-09T05:28:34;19.40;71.20
45537;DHT22;31262;51.978;5.924;2022-09-09T05:31:03;19.30;71.50
45537;DHT22;31262;51.978;5.924;2022-09-09T05:33:30;19.30;72.40
45537;DHT22;31262;51.978;5.924;2022-09-09T05:36:10;19.30;72.00
45537;DHT22;31262;51.978;5.924;2022-09-09T05:38:38;19.40;72.00
45537;DHT22;31262;51.978;5.924;2022-09-09T05:41:05;19.40;72.20
45537;DHT22;31262;51.978;5.924;2022-09-09T05:43:30;19.30;72.20
45537;DHT22;31262;51.978;5.924;2022-09-09T05:46:07;19.30;72.30
45537;DHT22;31262;51.978;5.924;2022-09-09T05:48:38;19.40;72.30
45537;DHT22;31262;51.978;5.924;2022-09-09T05:51:06;19.30;72.50
45537;DHT22;31262;51.978;5.924;2022-09-09T05:53:32;19.30;72.70
45537;DHT22;31262;51.978;5.924;2022-09-09T05:56:04;19.20;72.70
45537;DHT22;31262;51.978;5.924;2022-09-09T05:58:33;19.20;72.90
45537;DHT22;31262;51.978;5.924;2022-09-09T06:01:09;19.10;73.20
45537;DHT22;31262;51.978;5.924;2022-09-09T06:03:36;19.00;73.40
45537;DHT22;31262;51.978;5.924;2022-09-09T06:06:04;18.90;74.00
45537;DHT22;31262;51.978;5.924;2022-09-09T06:08:34;18.90;74.30
45537;DHT22;31262;51.978;5.924;2022-09-09T06:11:08;18.80;74.70
45537;DHT22;31262;51.978;5.924;2022-09-09T06:13:34;18.80;74.90
45537;DHT22;31262;51.978;5.924;2022-09-09T06:16:00;18.80;75.10
45537;DHT22;31262;51.978;5.924;2022-09-09T06:18:27;18.70;75.10
45537;DHT22;31262;51.978;5.924;2022-09-09T06:21:06;18.80;75.30
45537;DHT22;31262;51.978;5.924;2022-09-09T06:23:33;18.90;75.00
45537;DHT22;31262;51.978;5.924;2022-09-09T06:26:12;18.90;75.20
45537;DHT22;31262;51.978;5.924;2022-09-09T06:28:38;19.00;75.00
45537;DHT22;31262;51.978;5.924;2022-09-09T06:31:07;18.80;75.30
45537;DHT22;31262;51.978;5.924;2022-09-09T06:33:37;18.80;75.40
45537;DHT22;31262;51.978;5.924;2022-09-09T06:36:13;18.90;75.60
45537;DHT22;31262;51.978;5.924;2022-09-09T06:38:40;18.80;75.80
45537;DHT22;31262;51.978;5.924;2022-09-09T06:41:08;18.80;75.80
45537;DHT22;31262;51.978;5.924;2022-09-09T06:43:34;18.80;75.80
45537;DHT22;31262;51.978;5.924;2022-09-09T06:46:13;18.80;75.80
45537;DHT22;31262;51.978;5.924;2022-09-09T06:48:40;18.90;75.50
45537;DHT22;31262;51.978;5.924;2022-09-09T06:51:18;18.80;76.00
45537;DHT22;31262;51.978;5.924;2022-09-09T06:53:45;18.90;75.80
45537;DHT22;31262;51.978;5.924;2022-09-09T06:58:40;18.80;76.00
45537;DHT22;31262;51.978;5.924;2022-09-09T07:01:08;18.80;76.20
45537;DHT22;31262;51.978;5.924;2022-09-09T07:03:34;18.90;76.40
45537;DHT22;31262;51.978;5.924;2022-09-09T07:06:00;18.80;76.50
45537;DHT22;31262;51.978;5.924;2022-09-09T07:08:27;18.80;76.50
45537;DHT22;31262;51.978;5.924;2022-09-09T07:10:53;18.90;76.40
45537;DHT22;31262;51.978;5.924;2022-09-09T07:13:28;18.80;76.40
45537;DHT22;31262;51.978;5.924;2022-09-09T07:15:54;18.80;76.50
45537;DHT22;31262;51.978;5.924;2022-09-09T07:18:20;18.90;76.60
45537;DHT22;31262;51.978;5.924;2022-09-09T07:20:55;19.00;76.40
45537;DHT22;31262;51.978;5.924;2022-09-09T07:23:24;19.00;76.10
45537;DHT22;31262;51.978;5.924;2022-09-09T07:25:50;19.00;76.30
45537;DHT22;31262;51.978;5.924;2022-09-09T07:28:17;19.00;75.80
45537;DHT22;31262;51.978;5.924;2022-09-09T07:30:42;19.10;75.90
45537;DHT22;31262;51.978;5.924;2022-09-09T07:33:09;19.10;75.90
45537;DHT22;31262;51.978;5.924;2022-09-09T07:35:37;19.20;75.50
45537;DHT22;31262;51.978;5.924;2022-09-09T07:38:03;19.20;75.50
45537;DHT22;31262;51.978;5.924;2022-09-09T07:40:33;19.10;75.30
45537;DHT22;31262;51.978;5.924;2022-09-09T07:42:59;19.10;75.60
45537;DHT22;31262;51.978;5.924;2022-09-09T07:45:25;19.20;75.70
45537;DHT22;31262;51.978;5.924;2022-09-09T07:47:53;19.20;75.70
45537;DHT22;31262;51.978;5.924;2022-09-09T07:50:19;19.20;75.50
45537;DHT22;31262;51.978;5.924;2022-09-09T07:52:44;19.30;75.50
45537;DHT22;31262;51.978;5.924;2022-09-09T07:55:10;19.40;75.50
45537;DHT22;31262;51.978;5.924;2022-09-09T07:57:36;19.30;74.70
45537;DHT22;31262;51.978;5.924;2022-09-09T08:00:03;19.40;75.00
45537;DHT22;31262;51.978;5.924;2022-09-09T08:02:29;19.40;75.20
45537;DHT22;31262;51.978;5.924;2022-09-09T08:04:55;19.40;75.10
45537;DHT22;31262;51.978;5.924;2022-09-09T08:07:22;19.50;74.50
45537;DHT22;31262;51.978;5.924;2022-09-09T08:09:48;19.50;74.40
45537;DHT22;31262;51.978;5.924;2022-09-09T08:12:15;19.50;74.00
45537;DHT22;31262;51.978;5.924;2022-09-09T08:14:40;19.50;74.00
45537;DHT22;31262;51.978;5.924;2022-09-09T08:17:07;19.50;74.00
45537;DHT22;31262;51.978;5.924;2022-09-09T08:19:33;19.50;73.80
45537;DHT22;31262;51.978;5.924;2022-09-09T08:22:01;19.50;73.40
45537;DHT22;31262;51.978;5.924;2022-09-09T08:24:28;19.50;73.50
45537;DHT22;31262;51.978;5.924;2022-09-09T08:26:54;19.50;73.50
45537;DHT22;31262;51.978;5.924;2022-09-09T08:29:21;19.50;73.50
45537;DHT22;31262;51.978;5.924;2022-09-09T08:31:49;19.50;73.30
45537;DHT22;31262;51.978;5.924;2022-09-09T08:34:16;19.50;73.20
45537;DHT22;31262;51.978;5.924;2022-09-09T08:36:44;19.50;73.00
45537;DHT22;31262;51.978;5.924;2022-09-09T08:39:12;19.60;72.80
45537;DHT22;31262;51.978;5.924;2022-09-09T08:58:19;19.60;72.40
45537;DHT22;31262;51.978;5.924;2022-09-09T09:01:02;19.60;72.50
45537;DHT22;31262;51.978;5.924;2022-09-09T09:09:14;19.80;72.30
45537;DHT22;31262;51.978;5.924;2022-09-09T09:11:53;19.80;71.70
45537;DHT22;31262;51.978;5.924;2022-09-09T09:14:26;19.80;70.70
45537;DHT22;31262;51.978;5.924;2022-09-09T09:16:58;19.70;70.30
45537;DHT22;31262;51.978;5.924;2022-09-09T09:19:24;19.70;70.60
45537;DHT22;31262;51.978;5.924;2022-09-09T09:27:15;19.80;70.30
45537;DHT22;31262;51.978;5.924;2022-09-09T09:29:42;19.90;70.20
45537;DHT22;31262;51.978;5.924;2022-09-09T09:32:14;19.90;70.00
45537;DHT22;31262;51.978;5.924;2022-09-09T09:34:41;19.90;69.70
45537;DHT22;31262;51.978;5.924;2022-09-09T09:37:16;19.80;69.70
45537;DHT22;31262;51.978;5.924;2022-09-09T09:39:44;19.90;69.80
45537;DHT22;31262;51.978;5.924;2022-09-09T09:42:12;19.80;69.70
45537;DHT22;31262;51.978;5.924;2022-09-09T09:44:45;19.80;69.60
45537;DHT22;31262;51.978;5.924;2022-09-09T09:47:18;19.90;69.50
45537;DHT22;31262;51.978;5.924;2022-09-09T09:49:58;20.00;69.50
45537;DHT22;31262;51.978;5.924;2022-09-09T09:52:27;20.10;69.60
45537;DHT22;31262;51.978;5.924;2022-09-09T09:54:54;20.10;69.50
45537;DHT22;31262;51.978;5.924;2022-09-09T09:57:31;20.10;69.30
45537;DHT22;31262;51.978;5.924;2022-09-09T10:00:17;20.30;68.90
45537;DHT22;31262;51.978;5.924;2022-09-09T10:02:45;20.30;68.90
45537;DHT22;31262;51.978;5.924;2022-09-09T10:07:46;20.40;68.10
45537;DHT22;31262;51.978;5.924;2022-09-09T10:10:26;20.30;67.90
45537;DHT22;31262;51.978;5.924;2022-09-09T10:13:25;20.40;67.80
45537;DHT22;31262;51.978;5.924;2022-09-09T10:18:28;20.40;68.10
45537;DHT22;31262;51.978;5.924;2022-09-09T10:21:19;20.40;68.10
45537;DHT22;31262;51.978;5.924;2022-09-09T10:26:58;20.50;67.80
45537;DHT22;31262;51.978;5.924;2022-09-09T10:32:14;20.40;67.20
45537;DHT22;31262;51.978;5.924;2022-09-09T10:51:19;20.40;67.60
45537;DHT22;31262;51.978;5.924;2022-09-09T10:53:52;20.40;67.90
45537;DHT22;31262;51.978;5.924;2022-09-09T10:56:21;20.30;68.50
45537;DHT22;31262;51.978;5.924;2022-09-09T10:59:10;20.30;68.70
45537;DHT22;31262;51.978;5.924;2022-09-09T11:01:46;20.20;68.70
45537;DHT22;31262;51.978;5.924;2022-09-09T11:04:32;20.20;68.50
45537;DHT22;31262;51.978;5.924;2022-09-09T11:07:02;20.30;68.70
45537;DHT22;31262;51.978;5.924;2022-09-09T11:09:35;20.30;68.60
45537;DHT22;31262;51.978;5.924;2022-09-09T11:12:02;20.30;68.40
45537;DHT22;31262;51.978;5.924;2022-09-09T11:14:45;20.40;68.60
45537;DHT22;31262;51.978;5.924;2022-09-09T11:17:18;20.50;68.00
45537;DHT22;31262;51.978;5.924;2022-09-09T11:19:46;20.50;68.00
45537;DHT22;31262;51.978;5.924;2022-09-09T11:22:39;20.50;68.00
45537;DHT22;31262;51.978;5.924;2022-09-09T11:27:58;20.50;69.40
45537;DHT22;31262;51.978;5.924;2022-09-09T11:30:33;20.50;69.80
45537;DHT22;31262;51.978;5.924;2022-09-09T11:38:52;20.40;70.80
45537;DHT22;31262;51.978;5.924;2022-09-09T11:41:22;20.40;70.50
45537;DHT22;31262;51.978;5.924;2022-09-09T11:43:53;20.40;70.60
45537;DHT22;31262;51.978;5.924;2022-09-09T11:46:39;20.30;70.80
45537;DHT22;31262;51.978;5.924;2022-09-09T11:49:28;20.40;70.80
45537;DHT22;31262;51.978;5.924;2022-09-09T11:51:54;20.40;71.00
45537;DHT22;31262;51.978;5.924;2022-09-09T11:54:33;20.30;71.30
45537;DHT22;31262;51.978;5.924;2022-09-09T11:57:31;20.30;71.10
45537;DHT22;31262;51.978;5.924;2022-09-09T11:59:57;20.40;71.20
45537;DHT22;31262;51.978;5.924;2022-09-09T12:02:29;20.30;71.80
45537;DHT22;31262;51.978;5.924;2022-09-09T12:05:02;20.40;72.50
45537;DHT22;31262;51.978;5.924;2022-09-09T12:07:37;20.40;72.50
45537;DHT22;31262;51.978;5.924;2022-09-09T12:10:31;20.40;72.60
45537;DHT22;31262;51.978;5.924;2022-09-09T12:13:17;20.50;72.80
45537;DHT22;31262;51.978;5.924;2022-09-09T12:15:49;20.60;73.00
45537;DHT22;31262;51.978;5.924;2022-09-09T12:18:39;20.70;72.50
45537;DHT22;31262;51.978;5.924;2022-09-09T12:21:31;20.80;72.00
45537;DHT22;31262;51.978;5.924;2022-09-09T12:24:07;20.80;71.80
45537;DHT22;31262;51.978;5.924;2022-09-09T12:26:38;20.70;71.60
45537;DHT22;31262;51.978;5.924;2022-09-09T12:34:35;20.70;71.40
45537;DHT22;31262;51.978;5.924;2022-09-09T12:37:15;20.60;71.70
45537;DHT22;31262;51.978;5.924;2022-09-09T12:39:56;20.60;71.50
45537;DHT22;31262;51.978;5.924;2022-09-09T12:42:23;20.70;71.30
45537;DHT22;31262;51.978;5.924;2022-09-09T12:47:18;20.70;71.10
45537;DHT22;31262;51.978;5.924;2022-09-09T12:49:47;20.70;70.80
45537;DHT22;31262;51.978;5.924;2022-09-09T12:52:35;20.70;71.00
45537;DHT22;31262;51.978;5.924;2022-09-09T12:55:04;20.80;70.60
45537;DHT22;31262;51.978;5.924;2022-09-09T12:57:36;20.70;71.00
45537;DHT22;31262;51.978;5.924;2022-09-09T13:00:15;20.80;71.00
45537;DHT22;31262;51.978;5.924;2022-09-09T13:02:53;20.80;70.80
45537;DHT22;31262;51.978;5.924;2022-09-09T13:05:26;20.80;70.90
45537;DHT22;31262;51.978;5.924;2022-09-09T13:08:01;20.80;70.70
45537;DHT22;31262;51.978;5.924;2022-09-09T13:10:30;20.90;70.50
45537;DHT22;31262;51.978;5.924;2022-09-09T13:12:59;20.80;70.30
45537;DHT22;31262;51.978;5.924;2022-09-09T13:15:28;20.70;70.90
45537;DHT22;31262;51.978;5.924;2022-09-09T13:17:55;20.70;71.60
45537;DHT22;31262;51.978;5.924;2022-09-09T13:20:22;20.50;71.90
45537;DHT22;31262;51.978;5.924;2022-09-09T13:22:50;20.60;72.60
45537;DHT22;31262;51.978;5.924;2022-09-09T13:25:22;20.60;72.40
45537;DHT22;31262;51.978;5.924;2022-09-09T13:28:20;20.70;72.40
45537;DHT22;31262;51.978;5.924;2022-09-09T13:33:30;20.90;71.60
45537;DHT22;31262;51.978;5.924;2022-09-09T13:35:58;20.90;71.50
45537;DHT22;31262;51.978;5.924;2022-09-09T13:38:25;20.90;71.50
45537;DHT22;31262;51.978;5.924;2022-09-09T13:41:03;20.90;71.50
45537;DHT22;31262;51.978;5.924;2022-09-09T13:43:44;21.00;71.10
45537;DHT22;31262;51.978;5.924;2022-09-09T13:49:00;21.00;71.10
45537;DHT22;31262;51.978;5.924;2022-09-09T13:51:40;21.00;71.00
45537;DHT22;31262;51.978;5.924;2022-09-09T13:54:09;21.20;70.80
45537;DHT22;31262;51.978;5.924;2022-09-09T13:56:37;21.20;70.20
45537;DHT22;31262;51.978;5.924;2022-09-09T13:59:05;21.10;70.10
45537;DHT22;31262;51.978;5.924;2022-09-09T14:01:31;21.10;69.80
45537;DHT22;31262;51.978;5.924;2022-09-09T14:03:58;21.00;70.00
45537;DHT22;31262;51.978;5.924;2022-09-09T14:06:24;21.00;70.20
45537;DHT22;31262;51.978;5.924;2022-09-09T14:08:50;20.90;70.20
45537;DHT22;31262;51.978;5.924;2022-09-09T14:11:16;20.90;70.00
45537;DHT22;31262;51.978;5.924;2022-09-09T14:13:42;20.90;70.20
45537;DHT22;31262;51.978;5.924;2022-09-09T14:16:07;20.90;70.20
45537;DHT22;31262;51.978;5.924;2022-09-09T14:18:33;20.90;70.30
45537;DHT22;31262;51.978;5.924;2022-09-09T14:20:59;21.00;70.20
45537;DHT22;31262;51.978;5.924;2022-09-09T14:23:25;21.00;69.70
45537;DHT22;31262;51.978;5.924;2022-09-09T14:25:51;21.00;69.50
45537;DHT22;31262;51.978;5.924;2022-09-09T14:28:17;20.90;69.40
45537;DHT22;31262;51.978;5.924;2022-09-09T14:30:43;20.90;69.70
45537;DHT22;31262;51.978;5.924;2022-09-09T14:33:14;20.90;69.70
45537;DHT22;31262;51.978;5.924;2022-09-09T14:35:40;20.90;69.80
45537;DHT22;31262;51.978;5.924;2022-09-09T14:38:07;20.90;69.90
45537;DHT22;31262;51.978;5.924;2022-09-09T14:40:34;21.00;70.00
45537;DHT22;31262;51.978;5.924;2022-09-09T14:43:00;21.00;70.10
45537;DHT22;31262;51.978;5.924;2022-09-09T14:45:26;21.00;70.00
45537;DHT22;31262;51.978;5.924;2022-09-09T14:47:52;21.00;70.00
45537;DHT22;31262;51.978;5.924;2022-09-09T14:50:18;21.10;69.80
45537;DHT22;31262;51.978;5.924;2022-09-09T14:52:44;21.10;69.90
45537;DHT22;31262;51.978;5.924;2022-09-09T14:55:10;21.10;69.30
45537;DHT22;31262;51.978;5.924;2022-09-09T14:57:36;21.10;69.50
45537;DHT22;31262;51.978;5.924;2022-09-09T15:00:06;21.10;69.50
45537;DHT22;31262;51.978;5.924;2022-09-09T15:02:35;21.20;69.40
45537;DHT22;31262;51.978;5.924;2022-09-09T15:05:01;21.20;69.60
45537;DHT22;31262;51.978;5.924;2022-09-09T15:07:27;21.20;69.50
45537;DHT22;31262;51.978;5.924;2022-09-09T15:09:55;21.20;69.50
45537;DHT22;31262;51.978;5.924;2022-09-09T15:12:24;21.20;69.50
45537;DHT22;31262;51.978;5.924;2022-09-09T15:14:49;21.20;69.40
45537;DHT22;31262;51.978;5.924;2022-09-09T15:17:16;21.20;69.30
45537;DHT22;31262;51.978;5.924;2022-09-09T15:19:41;21.20;69.30
45537;DHT22;31262;51.978;5.924;2022-09-09T15:22:10;21.30;69.40
45537;DHT22;31262;51.978;5.924;2022-09-09T15:24:36;21.30;69.50
45537;DHT22;31262;51.978;5.924;2022-09-09T15:27:02;21.40;69.50
45537;DHT22;31262;51.978;5.924;2022-09-09T15:29:28;21.40;69.20
45537;DHT22;31262;51.978;5.924;2022-09-09T15:31:54;21.50;69.50
45537;DHT22;31262;51.978;5.924;2022-09-09T15:34:20;21.50;69.40
45537;DHT22;31262;51.978;5.924;2022-09-09T15:36:46;21.50;69.90
45537;DHT22;31262;51.978;5.924;2022-09-09T15:39:13;21.40;69.70
45537;DHT22;31262;51.978;5.924;2022-09-09T15:41:44;21.30;70.00
45537;DHT22;31262;51.978;5.924;2022-09-09T15:44:11;21.30;70.40
45537;DHT22;31262;51.978;5.924;2022-09-09T15:46:42;21.20;70.60
45537;DHT22;31262;51.978;5.924;2022-09-09T15:49:17;21.30;70.80
45537;DHT22;31262;51.978;5.924;2022-09-09T15:51:46;21.20;70.30
45537;DHT22;31262;51.978;5.924;2022-09-09T15:54:14;21.20;70.50
45537;DHT22;31262;51.978;5.924;2022-09-09T15:56:42;21.20;70.50
45537;DHT22;31262;51.978;5.924;2022-09-09T15:59:08;21.20;69.30
45537;DHT22;31262;51.978;5.924;2022-09-09T16:01:34;21.20;69.40
45537;DHT22;31262;51.978;5.924;2022-09-09T16:04:00;21.10;69.10
45537;DHT22;31262;51.978;5.924;2022-09-09T16:06:27;21.10;69.00
45537;DHT22;31262;51.978;5.924;2022-09-09T16:08:54;21.00;69.30
45537;DHT22;31262;51.978;5.924;2022-09-09T16:13:48;20.90;70.00
45537;DHT22;31262;51.978;5.924;2022-09-09T16:16:16;20.90;70.20
45537;DHT22;31262;51.978;5.924;2022-09-09T16:18:44;20.80;70.60
45537;DHT22;31262;51.978;5.924;2022-09-09T16:21:16;20.70;71.00
45537;DHT22;31262;51.978;5.924;2022-09-09T16:23:42;20.70;71.40
45537;DHT22;31262;51.978;5.924;2022-09-09T16:26:11;20.70;71.90
45537;DHT22;31262;51.978;5.924;2022-09-09T16:28:37;20.80;72.10
45537;DHT22;31262;51.978;5.924;2022-09-09T16:31:07;20.50;71.90
45537;DHT22;31262;51.978;5.924;2022-09-09T16:33:37;20.70;73.00
45537;DHT22;31262;51.978;5.924;2022-09-09T16:36:24;20.70;73.20
45537;DHT22;31262;51.978;5.924;2022-09-09T16:38:52;20.80;73.10
45537;DHT22;31262;51.978;5.924;2022-09-09T16:41:19;20.40;73.30
45537;DHT22;31262;51.978;5.924;2022-09-09T16:43:45;20.50;74.10
45537;DHT22;31262;51.978;5.924;2022-09-09T16:46:18;20.50;74.10
45537;DHT22;31262;51.978;5.924;2022-09-09T16:48:48;20.50;74.00
45537;DHT22;31262;51.978;5.924;2022-09-09T16:51:29;20.40;73.90
45537;DHT22;31262;51.978;5.924;2022-09-09T16:53:58;20.20;73.80
45537;DHT22;31262;51.978;5.924;2022-09-09T16:56:26;20.20;74.50
45537;DHT22;31262;51.978;5.924;2022-09-09T16:58:57;20.10;74.60
45537;DHT22;31262;51.978;5.924;2022-09-09T17:01:25;20.20;74.40
45537;DHT22;31262;51.978;5.924;2022-09-09T17:03:55;20.10;75.10
45537;DHT22;31262;51.978;5.924;2022-09-09T17:06:21;20.10;74.30
45537;DHT22;31262;51.978;5.924;2022-09-09T17:08:46;20.00;74.60
45537;DHT22;31262;51.978;5.924;2022-09-09T17:11:18;20.00;74.80
45537;DHT22;31262;51.978;5.924;2022-09-09T17:13:45;20.10;74.70
45537;DHT22;31262;51.978;5.924;2022-09-09T17:16:13;20.30;74.60
45537;DHT22;31262;51.978;5.924;2022-09-09T17:18:39;20.50;74.00
45537;DHT22;31262;51.978;5.924;2022-09-09T17:21:17;20.60;73.60
45537;DHT22;31262;51.978;5.924;2022-09-09T17:23:44;20.80;72.90
45537;DHT22;31262;51.978;5.924;2022-09-09T17:26:12;20.90;72.80
45537;DHT22;31262;51.978;5.924;2022-09-09T17:28:38;21.10;72.30
45537;DHT22;31262;51.978;5.924;2022-09-09T17:31:06;21.20;72.10
45537;DHT22;31262;51.978;5.924;2022-09-09T17:33:37;21.20;71.60
45537;DHT22;31262;51.978;5.924;2022-09-09T17:36:09;21.20;71.50
45537;DHT22;31262;51.978;5.924;2022-09-09T17:38:37;21.30;71.70